Detalhes do Voo

Voltar

 DETALHES DO VÔO

Piloto: GLD797 Paulo C. Aeronave: $$:Pilatus Distância: 382NM
Origem: SBSV Destino: SBRF Duração: 1.87
Validação: Validado Tipo: Charter Matrícula: PT-GLD
ZFW: 6560 Block Fuel/Init FOB 740/419 Combustível em Voo 740
Passageiros: 3 Carga: 150 Alternativo: SBMO
Hora da Decolagem: 0914 Velocidade de Cruzeiro: 220 Nível de Voo: FL210
Regra Visual: IFR ICAO da Aeronave: PC12 Unidade de Peso: Kg
Data: 22/03/2026 Observação: GOLD ACARS Rede: IVAO
Acidentou?: Não Comentários do Validador: Pontuação do Voo 114.534

 ROTA

ROTA DCT ARVOR DCT ANBEX DCT
REMARKS OPR/GOLD VIRTUAL AIRLINES PER/B RMK/FROM SBSV RMK/PIC GLD797

 PENALIDADES DO VOO

Para entender como cada item é pontuado, consulte as regras de avaliação.

Nenhuma penalidade registrada para este voo.

 ANÁLISE DO POUSO

Vento durante o pouso: 90º/9 kt Proa durante o pouso: 154
V/S do Pouso: -46 ft/min IAS do Pouso: 80 kt
Força G no pouso: 1.0464 G Bank no pouso: -0.28
Pitch no Pouso 3.51 Flaps no Pouso 66
Nav Lights ON Landing Lights ON
Beacon Lights ON Strobe Lights ON

 MAPA DO VOO

 PERFIL VERTICAL DO VOO

 EVENTOS PRINCIPAIS DO VOO

DATAEVENTOIASALTITUDE
2026-03-22 09:14:53 GOLD ACARS VERSION 3.3.6.900
2026-03-22 09:14:53 BOARDING029
2026-03-22 09:14:53 LITTLENAVMAP ON029
2026-03-22 09:15:24 NAV LIGHTS ON029
2026-03-22 09:15:25 BCN LIGHTS ON029
2026-03-22 09:17:05 STARTING ENGINE 1022
2026-03-22 09:18:30 TAXI LIGHTS ON022
2026-03-22 09:21:50 TAXI TO THE RWY824
2026-03-22 09:22:22 FLAP 33%320
2026-03-22 09:22:28 LND LIGHTS ON220
2026-03-22 09:22:30 TAXI LIGHTS OFF220
2026-03-22 09:22:35 STB LIGHTS ON320
2026-03-22 09:25:11 CLIMBING10334
2026-03-22 09:25:16 CRUISE11389
2026-03-22 09:25:16 GEAR UP11389
2026-03-22 09:25:20 CLIMBING122107
2026-03-22 09:25:20 FLAP 0%122107
2026-03-22 09:25:25 AP ENGAGED128257
2026-03-22 09:25:28 CRUISE138296
2026-03-22 09:25:29 LANDING146292
2026-03-22 09:25:35 CLIMBING169276
2026-03-22 09:28:52 LND LIGHTS OFF13910068
2026-03-22 09:33:25 CRUISE14920166
2026-03-22 09:48:09 DESCEND19420320
2026-03-22 09:48:21 CLIMBING20219999
2026-03-22 09:48:32 CRUISE19520261
2026-03-22 10:39:37 DESCEND19420774
2026-03-22 10:48:19 LND LIGHTS ON1829981
2026-03-22 10:50:31 GEAR DOWN1297656
2026-03-22 10:51:40 FLAP 33%1136826
2026-03-22 10:54:29 FLAP 66%1074851
2026-03-22 10:57:39 CLIMBING941504
2026-03-22 10:58:10 CRUISE1021794
2026-03-22 10:58:43 LANDING1101758
2026-03-22 10:59:32 CLIMBING1151220
2026-03-22 10:59:36 CRUISE1181251
2026-03-22 11:00:31 LANDING1231264
2026-03-22 11:02:35 AP DISENGAGED88161
2026-03-22 11:03:00 LANDED AIRPORT [SBRF]8033
2026-03-22 11:03:00 LANDED - VS: -46 ft/min7931
2026-03-22 11:03:34 TAXI TO THE GATE2936
2026-03-22 11:04:10 TAXI LIGHTS ON033
2026-03-22 11:04:11 LND LIGHTS OFF033
2026-03-22 11:04:14 STB LIGHTS OFF033
2026-03-22 11:06:46 AT THE GATE032
2026-03-22 11:07:00 LANDED NOT IN THE PLANNED AIRPORT [SBAR] - [lat: -8,12520846140485] - [long: -34,9254495737662]032
2026-03-22 11:07:01 FLIGHT FINISHED032

 DADOS DO ACARS

DATA IAS GS ALTITUDE COMBUSTÍVEL USADO OAT FASE DO VOO
2026-03-22 09:16:53 0 0 22 0 28 BOARDING
2026-03-22 09:17:53 0 0 22 2 28 BOARDING
2026-03-22 09:18:53 0 0 22 4 28 BOARDING
2026-03-22 09:19:53 0 1 22 6 28 BOARDING
2026-03-22 09:20:53 0 1 22 8 28 BOARDING
2026-03-22 09:21:53 9 5 23 9 28 BOARDING
2026-03-22 09:22:53 3 0 20 11 28 TAXI TO THE RWY
2026-03-22 09:23:53 2 1 18 13 28 TAXI TO THE RWY
2026-03-22 09:24:54 39 40 19 16 28 TAXI TO THE RWY
2026-03-22 09:25:54 146 142 1446 21 23 TAXI TO THE RWY
2026-03-22 09:26:54 139 148 4531 26 17 CLIMBING
2026-03-22 09:27:54 140 160 7343 31 13 CLIMBING
2026-03-22 09:28:54 139 166 10178 35 8 CLIMBING
2026-03-22 09:29:54 139 171 12724 39 5 CLIMBING
2026-03-22 09:30:55 139 177 15093 42 1 CLIMBING
2026-03-22 09:31:55 139 182 17275 46 -2 CLIMBING
2026-03-22 09:32:55 139 188 19372 49 -7 CLIMBING
2026-03-22 09:33:55 177 245 20241 52 -10 CLIMBING
2026-03-22 09:34:55 195 268 20305 55 -10 CRUISE
2026-03-22 09:35:56 196 271 20313 59 -10 CRUISE
2026-03-22 09:36:56 196 271 20315 62 -10 CRUISE
2026-03-22 09:37:56 196 271 20318 65 -10 CRUISE
2026-03-22 09:38:56 197 270 20318 68 -10 CRUISE
2026-03-22 09:39:56 197 269 20314 71 -10 CRUISE
2026-03-22 09:40:56 195 269 20312 74 -10 CRUISE
2026-03-22 09:41:56 197 269 20313 77 -10 CRUISE
2026-03-22 09:42:56 196 268 20319 81 -10 CRUISE
2026-03-22 09:43:56 198 268 20318 84 -10 CRUISE
2026-03-22 09:44:56 197 267 20317 87 -10 CRUISE
2026-03-22 09:45:57 197 268 20324 90 -10 CRUISE
2026-03-22 09:46:57 195 268 20329 93 -10 CRUISE
2026-03-22 09:47:57 197 266 20327 96 -10 CRUISE
2026-03-22 09:48:57 195 265 20259 99 -9 CRUISE
2026-03-22 09:49:57 195 266 20257 103 -9 CRUISE
2026-03-22 09:50:57 197 266 20244 106 -9 CRUISE
2026-03-22 09:51:58 198 266 20252 109 -9 CRUISE
2026-03-22 09:52:58 197 266 20245 112 -9 CRUISE
2026-03-22 09:53:58 196 266 20242 115 -9 CRUISE
2026-03-22 09:54:58 196 266 20235 118 -9 CRUISE
2026-03-22 09:55:58 196 266 20232 121 -9 CRUISE
2026-03-22 09:56:58 197 265 20220 125 -9 CRUISE
2026-03-22 09:57:59 195 266 20212 128 -9 CRUISE
2026-03-22 09:58:59 195 266 20213 131 -9 CRUISE
2026-03-22 09:59:59 197 265 20206 134 -9 CRUISE
2026-03-22 10:00:59 197 265 20203 137 -9 CRUISE
2026-03-22 10:01:59 196 265 20202 140 -9 CRUISE
2026-03-22 10:02:59 196 265 20202 143 -9 CRUISE
2026-03-22 10:03:59 197 265 20199 147 -9 CRUISE
2026-03-22 10:04:59 196 265 20199 150 -9 CRUISE
2026-03-22 10:05:59 196 265 20200 153 -9 CRUISE
2026-03-22 10:06:59 197 265 20194 156 -9 CRUISE
2026-03-22 10:08:00 197 264 20194 159 -9 CRUISE
2026-03-22 10:09:00 195 264 20192 162 -9 CRUISE
2026-03-22 10:10:00 195 264 20193 165 -9 CRUISE
2026-03-22 10:11:00 197 264 20185 168 -9 CRUISE
2026-03-22 10:12:00 196 263 20196 172 -9 CRUISE
2026-03-22 10:13:00 195 264 20210 175 -9 CRUISE
2026-03-22 10:14:01 196 265 20224 178 -9 CRUISE
2026-03-22 10:15:01 196 265 20238 181 -9 CRUISE
2026-03-22 10:16:01 196 264 20250 184 -9 CRUISE
2026-03-22 10:17:01 196 263 20258 187 -9 CRUISE
2026-03-22 10:18:01 196 265 20261 190 -9 CRUISE
2026-03-22 10:19:01 196 265 20280 194 -9 CRUISE
2026-03-22 10:20:01 196 265 20289 197 -9 CRUISE
2026-03-22 10:21:01 196 265 20297 200 -9 CRUISE
2026-03-22 10:22:02 196 265 20316 203 -9 CRUISE
2026-03-22 10:23:02 195 265 20331 206 -9 CRUISE
2026-03-22 10:24:02 195 265 20342 209 -9 CRUISE
2026-03-22 10:25:02 196 265 20385 212 -9 CRUISE
2026-03-22 10:26:02 195 265 20407 215 -9 CRUISE
2026-03-22 10:27:02 195 265 20426 219 -9 CRUISE
2026-03-22 10:28:02 195 265 20483 222 -9 CRUISE
2026-03-22 10:29:03 195 265 20495 225 -9 CRUISE
2026-03-22 10:30:03 195 266 20509 228 -10 CRUISE
2026-03-22 10:31:03 195 266 20523 231 -10 CRUISE
2026-03-22 10:32:03 195 266 20555 234 -10 CRUISE
2026-03-22 10:33:03 194 264 20569 237 -10 CRUISE
2026-03-22 10:34:03 194 264 20607 240 -10 CRUISE
2026-03-22 10:35:03 195 265 20676 243 -10 CRUISE
2026-03-22 10:36:03 194 265 20726 246 -10 CRUISE
2026-03-22 10:37:04 194 265 20737 249 -10 CRUISE
2026-03-22 10:38:04 195 265 20757 253 -10 CRUISE
2026-03-22 10:39:04 195 265 20773 256 -10 CRUISE
2026-03-22 10:40:04 188 255 20283 259 -9 CRUISE
2026-03-22 10:41:04 185 244 18979 261 -6 DESCEND
2026-03-22 10:42:04 185 239 17654 264 -3 DESCEND
2026-03-22 10:43:04 188 236 16424 266 -1 DESCEND
2026-03-22 10:44:05 190 235 15171 269 0 DESCEND
2026-03-22 10:45:05 190 235 13952 272 2 DESCEND
2026-03-22 10:46:05 194 233 12681 275 4 DESCEND
2026-03-22 10:47:05 196 232 11447 278 6 DESCEND
2026-03-22 10:48:05 182 217 10244 281 8 DESCEND
2026-03-22 10:49:05 183 215 9075 283 10 DESCEND
2026-03-22 10:50:05 133 158 8001 286 12 DESCEND
2026-03-22 10:51:05 114 137 7226 288 13 DESCEND
2026-03-22 10:52:05 111 135 6540 290 14 DESCEND
2026-03-22 10:53:06 109 129 5810 292 16 DESCEND
2026-03-22 10:54:06 111 125 5101 294 17 DESCEND
2026-03-22 10:55:06 103 108 4481 296 18 DESCEND
2026-03-22 10:56:06 103 105 3923 298 19 DESCEND
2026-03-22 10:57:06 105 99 2202 300 22 DESCEND
2026-03-22 10:58:06 101 96 1764 303 23 DESCEND
2026-03-22 10:59:06 113 112 1568 305 23 CLIMBING
2026-03-22 11:00:06 115 116 1261 308 24 LANDING
2026-03-22 11:01:07 111 112 921 310 26 CRUISE
2026-03-22 11:02:07 93 94 381 312 30 LANDING
2026-03-22 11:03:07 57 55 30 314 30 LANDING
2026-03-22 11:04:07 0 0 33 316 30 LANDED - VS: -46 ft/min
2026-03-22 11:05:07 16 19 33 318 30 TAXI TO THE GATE
2026-03-22 11:06:07 0 0 32 320 30 TAXI TO THE GATE